Flight Track Log - Related Links

Times and Time Zones

All times are in EDT time to prevent confusion due to time zone crossing. See the AWE2037 flight status page for this flight to view local times or setup timezone preferences in your user account.

Time Position Orientation Groundspeed Altitude Reporting Facility
EDT Latitude Longitude Course Direction KTS MPH feet Rate Location/Type
Fri 06:58:12 PM 39.8833 -75.2167 292° West 147 169 800  Level Philadelphia TRACON
Fri 06:58:24 PM 39.8833 -75.2167 292° West 150 173 1,200 1,667 Climbing Philadelphia TRACON
Fri 06:59:24 PM 39.9000 -75.1500 72° East 214 246 2,800 1,900 Climbing Philadelphia TRACON
Fri 07:00:00 PM 39.6747 -75.5753 258° West  Level Estimated
Fri 07:00:24 PM 39.9500 -75.1167 27° Northeast 251 289 5,000  Level Philadelphia TRACON
Fri 07:01:00 PM 39.6086 -75.6863 270° West  Level Estimated
Fri 07:01:25 PM 40.0000 -75.1667 323° Northwest 289 333 8,000  Level Philadelphia TRACON
Fri 07:02:00 PM 39.5425 -75.7972 245° Southwest  Level Estimated
Fri 07:02:24 PM 39.9833 -75.2667 258° West 300 345 10,100  Level Philadelphia TRACON
Fri 07:03:00 PM 39.5836 -75.9268 292° West  Level FlightAware Approximate
Fri 07:09:16 PM 39.8050 -76.0940 258° West 100 115 19,600  Level FlightAware ADS-B
Fri 07:09:57 PM 39.7950 -76.1810 262° West 403 464 19,700 720 Climbing FlightAware ADS-B
Fri 07:10:31 PM 39.7630 -76.2650 244° Southwest 422 486 20,500 2,341 Climbing FlightAware ADS-B
Fri 07:11:19 PM 39.7280 -76.3580 244° Southwest 433 498 22,900 1,846 Climbing FlightAware ADS-B
Fri 07:12:02 PM 39.6870 -76.4730 245° Southwest 429 494 23,300 304 Climbing FlightAware ADS-B
Fri 07:12:38 PM 39.6610 -76.5440 245° Southwest 429 494 23,300  Level FlightAware ADS-B
Fri 07:13:12 PM 39.6370 -76.6120 245° Southwest 429 494 23,300  Level FlightAware ADS-B
Fri 07:13:50 PM 39.6100 -76.6870 245° Southwest 429 494 23,300  Level FlightAware ADS-B
Fri 07:14:25 PM 39.5850 -76.7570 245° Southwest 429 494 23,300  Level FlightAware ADS-B
Fri 07:15:01 PM 39.5590 -76.8280 245° Southwest 429 494 23,300 4,880 Level FlightAware ADS-B
Fri 07:15:40 PM 39.4444 -77.0347 245° Southwest 461 531 29,400 4,560 Climbing Washington Center
Fri 07:16:41 PM 39.3411 -77.1400 218° Southwest 468 539 30,900 1,210 Climbing Washington Center
Fri 07:17:39 PM 39.2397 -77.2503 220° Southwest 468 539 31,800 756 Climbing Washington Center
Fri 07:18:40 PM 39.1339 -77.3578 218° Southwest 481 554 32,400 689 Climbing Washington Center
Fri 07:19:41 PM 39.0258 -77.4672 218° Southwest 487 560 33,200 1,091 Climbing Washington Center
Fri 07:20:41 PM 38.9094 -77.5897 219° Southwest 492 566 34,600 1,261 Climbing Washington Center
Fri 07:21:40 PM 38.8033 -77.6961 218° Southwest 492 566 35,700 700 Climbing Washington Center
Fri 07:22:41 PM 38.6992 -77.8047 219° Southwest 497 572 36,000 149 Climbing Washington Center
Fri 07:23:41 PM 38.6031 -77.9269 225° Southwest 491 565 36,000  Level Washington Center
Fri 07:24:39 PM 38.5231 -78.0678 234° Southwest 485 558 36,000  Level Washington Center
Fri 07:25:39 PM 38.4431 -78.2003 232° Southwest 485 558 36,000  Level Washington Center
Fri 07:26:40 PM 38.3628 -78.3403 234° Southwest 485 558 36,000  Level Washington Center
Fri 07:27:40 PM 38.2803 -78.4775 233° Southwest 490 564 36,000  Level Washington Center
Fri 07:28:41 PM 38.2128 -78.5992 235° Southwest 490 564 36,000  Level Washington Center
Fri 07:29:42 PM 38.1214 -78.7486 232° Southwest 490 564 36,000  Level Washington Center
Fri 07:30:40 PM 38.0406 -78.8875 234° Southwest 490 564 36,000  Level Washington Center
Fri 07:31:40 PM 37.9575 -79.0208 232° Southwest 490 564 36,000  Level Washington Center
Fri 07:32:39 PM 37.8722 -79.1564 231° Southwest 490 564 36,000  Level Washington Center
Fri 07:33:39 PM 37.7894 -79.2681 227° Southwest 495 570 36,000  Level Washington Center
Fri 07:34:40 PM 37.6872 -79.4075 227° Southwest 495 570 36,000  Level Washington Center
Fri 07:35:40 PM 37.5953 -79.5339 227° Southwest 500 575 36,000  Level Washington Center
Fri 07:36:41 PM 37.5036 -79.6575 227° Southwest 500 575 36,000  Level Washington Center
Fri 07:37:41 PM 37.4181 -79.7783 228° Southwest 507 583 36,000  Level Washington Center
Fri 07:39:43 PM 37.2133 -80.0492 227° Southwest 488 562 36,000  Level Atlanta Center
Fri 07:40:43 PM 37.1214 -80.1733 227° Southwest 493 567 36,000  Level Atlanta Center
Fri 07:41:43 PM 37.0372 -80.2867 227° Southwest 493 567 36,000  Level Atlanta Center
Fri 07:42:43 PM 36.9453 -80.4106 227° Southwest 493 567 36,000  Level Atlanta Center
Fri 07:43:43 PM 36.8508 -80.5369 227° Southwest 493 567 36,000  Level Atlanta Center
Fri 07:44:43 PM 36.7564 -80.6628 227° Southwest 488 562 36,000  Level Atlanta Center
Fri 07:45:43 PM 36.6556 -80.7939 226° Southwest 483 556 36,000  Level Atlanta Center
Fri 07:46:43 PM 36.5628 -80.9164 227° Southwest 489 563 36,000  Level Atlanta Center
Fri 07:47:43 PM 36.4703 -81.0467 229° Southwest 489 563 36,000  Level Atlanta Center
Fri 07:48:43 PM 36.3753 -81.1714 227° Southwest 489 563 36,000  Level Atlanta Center
Fri 07:49:43 PM 36.2800 -81.2931 226° Southwest 489 563 36,000  Level Atlanta Center
Fri 07:50:43 PM 36.1847 -81.4200 227° Southwest 489 563 36,000  Level Atlanta Center
Fri 07:51:43 PM 36.0914 -81.5436 227° Southwest 494 568 36,000  Level Atlanta Center
Fri 07:52:43 PM 35.9936 -81.6700 226° Southwest 494 568 36,000  Level Atlanta Center
Fri 07:53:43 PM 35.8958 -81.7958 226° Southwest 494 568 36,000  Level Atlanta Center
Fri 07:54:43 PM 35.8000 -81.9161 226° Southwest 494 568 36,000  Level Atlanta Center
Fri 07:55:43 PM 35.7042 -82.0389 226° Southwest 494 568 36,000 -300 Level Atlanta Center
Fri 07:56:43 PM 35.6081 -82.1639 227° Southwest 494 568 35,400 -500 Descending Atlanta Center
Fri 07:57:43 PM 35.5117 -82.2858 226° Southwest 499 574 35,000 -200 Descending Atlanta Center
Fri 07:58:43 PM 35.4153 -82.4078 226° Southwest 499 574 35,000 -600 Level Atlanta Center
Fri 07:59:43 PM 35.3250 -82.5192 225° Southwest 505 581 33,800 -1,350 Descending Atlanta Center
Fri 08:00:43 PM 35.2200 -82.6328 221° Southwest 505 581 32,300 -1,650 Descending Atlanta Center
Fri 08:01:43 PM 35.1147 -82.7439 221° Southwest 505 581 30,500 -1,700 Descending Atlanta Center
Fri 08:02:43 PM 35.0136 -82.8519 221° Southwest 505 581 28,900 -1,650 Descending Atlanta Center
Fri 08:03:43 PM 34.9144 -82.9597 222° Southwest 494 568 27,200 -1,650 Descending Atlanta Center
Fri 08:04:43 PM 34.8150 -83.0622 220° Southwest 476 548 25,600 -1,550 Descending Atlanta Center
Fri 08:05:43 PM 34.7136 -83.1744 222° Southwest 465 535 24,100 -1,500 Descending Atlanta Center
Fri 08:06:43 PM 34.6247 -83.2739 223° Southwest 454 522 22,600 -1,450 Descending Atlanta Center
Fri 08:07:43 PM 34.5314 -83.3706 220° Southwest 448 516 21,200 -1,450 Descending Atlanta Center
Fri 08:08:43 PM 34.4442 -83.4644 222° Southwest 430 495 19,700 -1,450 Descending Atlanta Center
Fri 08:09:43 PM 34.3611 -83.5556 222° Southwest 421 484 18,300 -1,350 Descending Atlanta Center
Fri 08:10:43 PM 34.2758 -83.6417 220° Southwest 409 471 17,000 -1,350 Descending Atlanta Center
Fri 08:11:43 PM 34.1967 -83.7272 222° Southwest 397 457 15,600 -1,300 Descending Atlanta Center
Fri 08:12:43 PM 34.1197 -83.8106 222° Southwest 391 450 14,400 -900 Descending Atlanta Center
Fri 08:13:43 PM 34.0467 -83.8883 221° Southwest 382 440 13,800 -950 Descending Atlanta Center
Fri 08:14:43 PM 33.9717 -83.9661 221° Southwest 377 434 12,500 -900 Descending Atlanta Center
Fri 08:15:43 PM 33.8881 -84.0339 214° Southwest 369 425 12,000 -250 Descending Atlanta Center
Fri 08:16:43 PM 33.8275 -84.1289 233° Southwest 358 412 12,000  Level Atlanta Center
Fri 08:17:43 PM 33.7669 -84.2236 232° Southwest 358 412 12,000 -46 Level Atlanta Center
Fri 08:18:54 PM 33.7333 -84.3500 252° West 303 349 11,900 -412 Descending Atlanta TRACON
Fri 08:19:54 PM 33.7333 -84.4500 270° West 264 304 11,100 -1,300 Descending Atlanta TRACON
Fri 08:20:54 PM 33.7333 -84.5333 270° West 251 289 9,300 -1,789 Descending Atlanta TRACON
Fri 08:21:48 PM 33.7333 -84.6000 270° West 241 277 7,700 -1,947 Descending Atlanta TRACON
Fri 08:22:48 PM 33.7167 -84.6833 257° West 249 287 5,600 -1,800 Descending Atlanta TRACON
Fri 08:23:48 PM 33.6667 -84.6667 164° South 234 269 4,100 -850 Descending Atlanta TRACON
Fri 08:24:48 PM 33.6500 -84.6167 112° Southeast 180 207 3,900 -550 Descending Atlanta TRACON
Fri 08:25:48 PM 33.6500 -84.5667 90° East 176 203 3,000 -850 Descending Atlanta TRACON
Fri 08:26:48 PM 33.6500 -84.5167 90° East 137 158 2,200 -714 Descending Atlanta TRACON
Fri 08:27:54 PM 33.6500 -84.4667 90° East 130 150 1,500 -636 Descending Atlanta TRACON

Login

Don't have an account? Register now (free) for customized features, flight alerts, and more!